sensor_id;sensor_type;location;lat;lon;timestamp;pressure;altitude;pressure_sealevel;temperature;humidity
49627;BME280;35527;54.616;39.786;2022-08-01T00:00:57;100110.88;;;17.21;75.57
49627;BME280;35527;54.616;39.786;2022-08-01T00:04:02;100107.59;;;17.17;75.48
49627;BME280;35527;54.616;39.786;2022-08-01T00:07:09;100097.69;;;17.08;74.50
49627;BME280;35527;54.616;39.786;2022-08-01T00:10:16;100095.06;;;17.08;73.86
49627;BME280;35527;54.616;39.786;2022-08-01T00:13:20;100103.28;;;17.16;72.73
49627;BME280;35527;54.616;39.786;2022-08-01T00:16:24;100105.00;;;17.17;71.85
49627;BME280;35527;54.616;39.786;2022-08-01T00:19:29;100075.22;;;17.05;71.61
49627;BME280;35527;54.616;39.786;2022-08-01T00:22:39;100083.13;;;17.04;71.56
49627;BME280;35527;54.616;39.786;2022-08-01T00:25:43;100085.66;;;17.05;71.09
49627;BME280;35527;54.616;39.786;2022-08-01T00:28:49;100094.03;;;17.10;71.34
49627;BME280;35527;54.616;39.786;2022-08-01T00:31:57;100063.06;;;16.90;71.65
49627;BME280;35527;54.616;39.786;2022-08-01T00:35:03;100091.75;;;17.06;70.13
49627;BME280;35527;54.616;39.786;2022-08-01T00:38:07;100075.56;;;16.99;70.01
49627;BME280;35527;54.616;39.786;2022-08-01T00:41:09;100089.50;;;17.14;70.29
49627;BME280;35527;54.616;39.786;2022-08-01T00:44:13;100093.97;;;17.12;70.87
49627;BME280;35527;54.616;39.786;2022-08-01T00:47:16;100076.25;;;16.88;73.95
49627;BME280;35527;54.616;39.786;2022-08-01T00:50:19;100096.03;;;16.78;76.25
49627;BME280;35527;54.616;39.786;2022-08-01T00:53:24;100100.94;;;16.69;77.78
49627;BME280;35527;54.616;39.786;2022-08-01T00:56:30;100107.25;;;16.64;78.23
49627;BME280;35527;54.616;39.786;2022-08-01T00:59:36;100076.81;;;16.35;81.73
49627;BME280;35527;54.616;39.786;2022-08-01T01:02:39;100079.41;;;16.05;87.17
49627;BME280;35527;54.616;39.786;2022-08-01T01:05:58;100088.94;;;16.06;91.90
49627;BME280;35527;54.616;39.786;2022-08-01T01:09:15;100100.41;;;15.55;100.00
49627;BME280;35527;54.616;39.786;2022-08-01T01:13:26;100077.94;;;15.21;100.00
49627;BME280;35527;54.616;39.786;2022-08-01T01:16:15;100056.66;;;14.97;100.00
49627;BME280;35527;54.616;39.786;2022-08-01T01:19:24;100070.38;;;15.17;100.00
49627;BME280;35527;54.616;39.786;2022-08-01T01:22:47;100094.03;;;14.96;100.00
49627;BME280;35527;54.616;39.786;2022-08-01T01:26:17;100108.06;;;14.60;100.00
49627;BME280;35527;54.616;39.786;2022-08-01T01:29:28;100083.78;;;14.42;100.00
49627;BME280;35527;54.616;39.786;2022-08-01T01:32:39;100099.50;;;14.92;100.00
49627;BME280;35527;54.616;39.786;2022-08-01T01:35:49;100056.66;;;15.13;100.00
49627;BME280;35527;54.616;39.786;2022-08-01T01:38:55;100069.72;;;15.29;100.00
49627;BME280;35527;54.616;39.786;2022-08-01T01:42:04;100090.31;;;15.49;100.00
49627;BME280;35527;54.616;39.786;2022-08-01T01:45:13;100088.31;;;15.54;98.49
49627;BME280;35527;54.616;39.786;2022-08-01T01:48:18;100091.72;;;15.39;100.00
49627;BME280;35527;54.616;39.786;2022-08-01T01:51:25;100085.81;;;14.88;100.00
49627;BME280;35527;54.616;39.786;2022-08-01T01:54:33;100068.16;;;14.42;100.00
49627;BME280;35527;54.616;39.786;2022-08-01T01:57:40;100094.47;;;14.36;100.00
49627;BME280;35527;54.616;39.786;2022-08-01T02:00:45;100096.50;;;14.31;100.00
49627;BME280;35527;54.616;39.786;2022-08-01T02:03:49;100110.34;;;14.32;100.00
49627;BME280;35527;54.616;39.786;2022-08-01T02:06:58;100083.53;;;14.12;100.00
49627;BME280;35527;54.616;39.786;2022-08-01T02:10:08;100103.16;;;14.19;100.00
49627;BME280;35527;54.616;39.786;2022-08-01T02:13:14;100091.56;;;14.08;100.00
49627;BME280;35527;54.616;39.786;2022-08-01T02:16:23;100112.16;;;14.30;100.00
49627;BME280;35527;54.616;39.786;2022-08-01T02:19:28;100088.13;;;14.25;100.00
49627;BME280;35527;54.616;39.786;2022-08-01T02:22:40;100107.75;;;14.32;100.00
49627;BME280;35527;54.616;39.786;2022-08-01T02:26:03;100096.25;;;14.18;100.00
49627;BME280;35527;54.616;39.786;2022-08-01T02:29:15;100108.50;;;14.16;100.00
49627;BME280;35527;54.616;39.786;2022-08-01T02:32:37;100098.69;;;14.04;100.00
49627;BME280;35527;54.616;39.786;2022-08-01T02:35:42;100103.75;;;14.25;100.00
49627;BME280;35527;54.616;39.786;2022-08-01T02:38:50;100104.88;;;14.36;100.00
49627;BME280;35527;54.616;39.786;2022-08-01T02:41:58;100096.78;;;14.42;100.00
49627;BME280;35527;54.616;39.786;2022-08-01T02:45:04;100109.28;;;14.53;100.00
49627;BME280;35527;54.616;39.786;2022-08-01T02:48:11;100108.06;;;14.60;100.00
49627;BME280;35527;54.616;39.786;2022-08-01T02:51:15;100087.66;;;14.51;100.00
49627;BME280;35527;54.616;39.786;2022-08-01T02:54:20;100118.16;;;14.67;100.00
49627;BME280;35527;54.616;39.786;2022-08-01T02:57:26;100112.56;;;14.74;100.00
49627;BME280;35527;54.616;39.786;2022-08-01T03:00:35;100091.47;;;14.79;100.00
49627;BME280;35527;54.616;39.786;2022-08-01T03:03:40;100097.56;;;14.95;100.00
49627;BME280;35527;54.616;39.786;2022-08-01T03:06:45;100100.47;;;15.06;100.00
49627;BME280;35527;54.616;39.786;2022-08-01T03:09:51;100109.59;;;15.31;100.00
49627;BME280;35527;54.616;39.786;2022-08-01T03:12:55;100118.41;;;15.28;100.00
49627;BME280;35527;54.616;39.786;2022-08-01T03:16:02;100110.34;;;15.49;100.00
49627;BME280;35527;54.616;39.786;2022-08-01T03:19:08;100108.34;;;15.70;100.00
49627;BME280;35527;54.616;39.786;2022-08-01T03:22:15;100093.03;;;15.80;100.00
49627;BME280;35527;54.616;39.786;2022-08-01T03:25:19;100103.47;;;15.80;100.00
49627;BME280;35527;54.616;39.786;2022-08-01T03:28:24;100090.22;;;15.67;100.00
49627;BME280;35527;54.616;39.786;2022-08-01T03:31:28;100110.34;;;15.96;100.00
49627;BME280;35527;54.616;39.786;2022-08-01T03:34:35;100071.72;;;17.05;100.00
49627;BME280;35527;54.616;39.786;2022-08-01T03:37:42;100105.16;;;20.00;81.16
49627;BME280;35527;54.616;39.786;2022-08-01T03:41:09;100105.44;;;22.64;60.05
49627;BME280;35527;54.616;39.786;2022-08-01T03:44:17;100088.75;;;22.94;53.47
49627;BME280;35527;54.616;39.786;2022-08-01T03:47:36;100099.47;;;23.83;50.46
49627;BME280;35527;54.616;39.786;2022-08-01T03:50:46;100098.34;;;24.24;48.39
49627;BME280;35527;54.616;39.786;2022-08-01T03:53:53;100102.69;;;23.87;49.36
49627;BME280;35527;54.616;39.786;2022-08-01T03:56:58;100101.72;;;23.28;51.04
49627;BME280;35527;54.616;39.786;2022-08-01T04:00:05;100104.03;;;22.90;51.57
49627;BME280;35527;54.616;39.786;2022-08-01T04:03:16;100093.59;;;23.70;50.04
49627;BME280;35527;54.616;39.786;2022-08-01T04:06:23;100113.34;;;24.72;47.50
49627;BME280;35527;54.616;39.786;2022-08-01T04:09:28;100103.28;;;25.13;46.25
49627;BME280;35527;54.616;39.786;2022-08-01T04:12:33;100111.47;;;25.30;45.85
49627;BME280;35527;54.616;39.786;2022-08-01T04:15:37;100109.31;;;25.06;46.63
49627;BME280;35527;54.616;39.786;2022-08-01T04:18:41;100116.72;;;25.02;46.96
49627;BME280;35527;54.616;39.786;2022-08-01T04:21:44;100108.78;;;25.57;46.63
49627;BME280;35527;54.616;39.786;2022-08-01T04:24:53;100108.75;;;25.67;45.47
49627;BME280;35527;54.616;39.786;2022-08-01T04:27:58;100086.88;;;25.83;45.12
49627;BME280;35527;54.616;39.786;2022-08-01T04:31:09;100092.34;;;26.69;43.59
49627;BME280;35527;54.616;39.786;2022-08-01T04:34:18;100076.38;;;26.95;42.42
49627;BME280;35527;54.616;39.786;2022-08-01T04:37:25;100103.19;;;26.50;43.58
49627;BME280;35527;54.616;39.786;2022-08-01T04:40:29;100107.69;;;26.76;43.88
49627;BME280;35527;54.616;39.786;2022-08-01T04:43:38;100110.94;;;27.04;43.37
49627;BME280;35527;54.616;39.786;2022-08-01T04:46:43;100067.69;;;28.03;41.24
49627;BME280;35527;54.616;39.786;2022-08-01T04:49:47;100107.81;;;28.42;40.34
49627;BME280;35527;54.616;39.786;2022-08-01T04:52:51;100127.25;;;28.67;40.12
49627;BME280;35527;54.616;39.786;2022-08-01T04:55:55;100081.47;;;28.56;40.05
49627;BME280;35527;54.616;39.786;2022-08-01T04:58:59;100118.63;;;29.13;39.81
49627;BME280;35527;54.616;39.786;2022-08-01T05:02:26;100125.16;;;30.19;37.46
49627;BME280;35527;54.616;39.786;2022-08-01T05:05:35;100129.28;;;30.29;37.83
49627;BME280;35527;54.616;39.786;2022-08-01T05:08:40;100130.31;;;30.96;36.31
49627;BME280;35527;54.616;39.786;2022-08-01T05:11:44;100129.34;;;31.33;35.61
49627;BME280;35527;54.616;39.786;2022-08-01T05:14:48;100101.31;;;31.29;35.21
49627;BME280;35527;54.616;39.786;2022-08-01T05:17:52;100121.88;;;31.80;34.99
49627;BME280;35527;54.616;39.786;2022-08-01T05:20:56;100137.53;;;31.98;34.37
49627;BME280;35527;54.616;39.786;2022-08-01T05:23:59;100121.81;;;31.73;35.00
49627;BME280;35527;54.616;39.786;2022-08-01T05:27:06;100119.88;;;30.71;36.50
49627;BME280;35527;54.616;39.786;2022-08-01T05:30:10;100120.84;;;30.18;38.23
49627;BME280;35527;54.616;39.786;2022-08-01T05:33:14;100119.25;;;31.14;36.22
49627;BME280;35527;54.616;39.786;2022-08-01T05:36:18;100123.44;;;30.49;36.91
49627;BME280;35527;54.616;39.786;2022-08-01T05:39:22;100119.59;;;31.40;35.67
49627;BME280;35527;54.616;39.786;2022-08-01T05:42:26;100132.72;;;31.35;35.44
49627;BME280;35527;54.616;39.786;2022-08-01T05:45:30;100133.34;;;32.38;33.96
49627;BME280;35527;54.616;39.786;2022-08-01T05:48:33;100114.88;;;32.78;31.18
49627;BME280;35527;54.616;39.786;2022-08-01T05:51:43;100126.19;;;32.73;32.61
49627;BME280;35527;54.616;39.786;2022-08-01T05:54:48;100124.06;;;32.97;31.08
49627;BME280;35527;54.616;39.786;2022-08-01T05:58:18;100129.16;;;33.81;30.06
49627;BME280;35527;54.616;39.786;2022-08-01T06:01:22;100124.00;;;33.80;29.47
49627;BME280;35527;54.616;39.786;2022-08-01T06:04:29;100133.78;;;34.61;29.07
49627;BME280;35527;54.616;39.786;2022-08-01T06:07:32;100128.31;;;35.01;28.78
49627;BME280;35527;54.616;39.786;2022-08-01T06:10:39;100116.50;;;35.60;27.34
49627;BME280;35527;54.616;39.786;2022-08-01T06:13:43;100125.78;;;35.19;27.00
49627;BME280;35527;54.616;39.786;2022-08-01T06:16:46;100121.16;;;35.33;27.17
49627;BME280;35527;54.616;39.786;2022-08-01T06:19:49;100138.63;;;35.69;26.45
49627;BME280;35527;54.616;39.786;2022-08-01T06:22:52;100124.59;;;35.47;26.85
49627;BME280;35527;54.616;39.786;2022-08-01T06:25:55;100125.41;;;35.85;26.09
49627;BME280;35527;54.616;39.786;2022-08-01T06:28:59;100139.66;;;36.49;25.43
49627;BME280;35527;54.616;39.786;2022-08-01T06:32:04;100129.44;;;36.76;24.64
49627;BME280;35527;54.616;39.786;2022-08-01T06:35:07;100130.78;;;35.60;24.31
49627;BME280;35527;54.616;39.786;2022-08-01T06:38:12;100125.44;;;32.80;28.06
49627;BME280;35527;54.616;39.786;2022-08-01T06:41:18;100128.00;;;31.74;29.95
49627;BME280;35527;54.616;39.786;2022-08-01T06:44:22;100137.75;;;30.10;31.29
49627;BME280;35527;54.616;39.786;2022-08-01T06:47:26;100120.69;;;29.96;31.98
49627;BME280;35527;54.616;39.786;2022-08-01T06:50:30;100121.53;;;30.72;31.88
49627;BME280;35527;54.616;39.786;2022-08-01T06:53:37;100113.44;;;31.98;30.63
49627;BME280;35527;54.616;39.786;2022-08-01T06:56:41;100121.28;;;33.67;28.58
49627;BME280;35527;54.616;39.786;2022-08-01T06:59:47;100122.19;;;34.34;27.58
49627;BME280;35527;54.616;39.786;2022-08-01T07:02:57;100125.81;;;35.12;26.29
49627;BME280;35527;54.616;39.786;2022-08-01T07:06:04;100115.09;;;35.44;25.19
49627;BME280;35527;54.616;39.786;2022-08-01T07:09:36;100127.50;;;35.45;25.23
49627;BME280;35527;54.616;39.786;2022-08-01T07:12:40;100113.22;;;33.73;26.39
49627;BME280;35527;54.616;39.786;2022-08-01T07:15:46;100112.69;;;33.30;26.85
49627;BME280;35527;54.616;39.786;2022-08-01T07:18:51;100122.38;;;34.65;25.85
49627;BME280;35527;54.616;39.786;2022-08-01T07:21:54;100126.66;;;34.93;25.21
49627;BME280;35527;54.616;39.786;2022-08-01T07:24:57;100115.97;;;34.46;25.78
49627;BME280;35527;54.616;39.786;2022-08-01T07:28:01;100133.44;;;35.15;25.56
49627;BME280;35527;54.616;39.786;2022-08-01T07:31:05;100130.69;;;34.37;25.46
49627;BME280;35527;54.616;39.786;2022-08-01T07:34:08;100131.53;;;33.43;26.49
49627;BME280;35527;54.616;39.786;2022-08-01T07:37:14;100129.50;;;33.04;25.97
49627;BME280;35527;54.616;39.786;2022-08-01T07:40:19;100137.28;;;32.98;26.61
49627;BME280;35527;54.616;39.786;2022-08-01T07:43:24;100140.19;;;32.69;26.89
49627;BME280;35527;54.616;39.786;2022-08-01T07:46:26;100127.66;;;32.48;27.27
49627;BME280;35527;54.616;39.786;2022-08-01T07:49:32;100128.69;;;33.10;26.30
49627;BME280;35527;54.616;39.786;2022-08-01T07:52:38;100120.47;;;33.66;26.33
49627;BME280;35527;54.616;39.786;2022-08-01T07:55:45;100131.88;;;34.68;24.99
49627;BME280;35527;54.616;39.786;2022-08-01T07:58:50;100114.69;;;33.62;25.53
49627;BME280;35527;54.616;39.786;2022-08-01T08:01:54;100130.81;;;33.21;26.27
49627;BME280;35527;54.616;39.786;2022-08-01T08:04:57;100133.56;;;34.29;24.58
49627;BME280;35527;54.616;39.786;2022-08-01T08:08:04;100139.94;;;34.01;23.87
49627;BME280;35527;54.616;39.786;2022-08-01T08:11:11;100133.25;;;33.71;24.01
49627;BME280;35527;54.616;39.786;2022-08-01T08:14:15;100124.97;;;32.48;26.59
49627;BME280;35527;54.616;39.786;2022-08-01T08:17:19;100120.50;;;32.83;25.59
49627;BME280;35527;54.616;39.786;2022-08-01T08:20:24;100125.84;;;33.79;25.16
49627;BME280;35527;54.616;39.786;2022-08-01T08:23:31;100122.94;;;34.87;23.29
49627;BME280;35527;54.616;39.786;2022-08-01T08:26:57;100092.50;;;34.93;22.67
49627;BME280;35527;54.616;39.786;2022-08-01T08:30:00;100101.00;;;35.49;22.95
49627;BME280;35527;54.616;39.786;2022-08-01T08:33:03;100106.69;;;35.27;23.01
49627;BME280;35527;54.616;39.786;2022-08-01T08:36:06;100097.44;;;35.10;22.68
49627;BME280;35527;54.616;39.786;2022-08-01T08:39:10;100104.19;;;33.94;24.71
49627;BME280;35527;54.616;39.786;2022-08-01T08:42:40;100106.06;;;32.56;25.30
49627;BME280;35527;54.616;39.786;2022-08-01T08:45:45;100099.28;;;32.32;25.51
49627;BME280;35527;54.616;39.786;2022-08-01T08:48:47;100108.59;;;33.47;24.45
49627;BME280;35527;54.616;39.786;2022-08-01T08:51:52;100096.03;;;32.08;26.07
49627;BME280;35527;54.616;39.786;2022-08-01T08:54:57;100081.94;;;32.00;25.93
49627;BME280;35527;54.616;39.786;2022-08-01T08:58:02;100108.31;;;31.60;25.96
49627;BME280;35527;54.616;39.786;2022-08-01T09:01:09;100113.69;;;31.45;26.52
49627;BME280;35527;54.616;39.786;2022-08-01T09:04:12;100117.34;;;31.80;25.73
49627;BME280;35527;54.616;39.786;2022-08-01T09:07:16;100107.06;;;31.26;26.40
49627;BME280;35527;54.616;39.786;2022-08-01T09:10:20;100089.91;;;31.35;26.38
49627;BME280;35527;54.616;39.786;2022-08-01T09:13:33;100107.22;;;32.19;25.34
49627;BME280;35527;54.616;39.786;2022-08-01T09:16:43;100114.69;;;33.76;23.87
49627;BME280;35527;54.616;39.786;2022-08-01T09:19:54;100084.75;;;33.85;22.92
49627;BME280;35527;54.616;39.786;2022-08-01T09:22:58;100111.59;;;33.72;23.45
49627;BME280;35527;54.616;39.786;2022-08-01T09:26:00;100107.44;;;33.63;23.28
49627;BME280;35527;54.616;39.786;2022-08-01T09:29:07;100101.13;;;34.24;23.14
49627;BME280;35527;54.616;39.786;2022-08-01T09:32:13;100085.16;;;34.62;23.03
49627;BME280;35527;54.616;39.786;2022-08-01T09:35:23;100074.31;;;34.95;22.44
49627;BME280;35527;54.616;39.786;2022-08-01T09:38:26;100089.31;;;34.51;23.17
49627;BME280;35527;54.616;39.786;2022-08-01T09:41:32;100076.09;;;34.43;22.27
49627;BME280;35527;54.616;39.786;2022-08-01T09:44:38;100074.03;;;34.12;22.91
49627;BME280;35527;54.616;39.786;2022-08-01T09:47:44;100062.31;;;31.93;24.33
49627;BME280;35527;54.616;39.786;2022-08-01T09:50:51;100076.22;;;30.94;26.17
49627;BME280;35527;54.616;39.786;2022-08-01T09:53:54;100066.75;;;29.55;27.80
49627;BME280;35527;54.616;39.786;2022-08-01T09:57:12;100064.72;;;29.88;28.20
49627;BME280;35527;54.616;39.786;2022-08-01T10:00:18;100063.56;;;31.03;27.07
49627;BME280;35527;54.616;39.786;2022-08-01T10:03:37;100051.59;;;30.69;26.79
49627;BME280;35527;54.616;39.786;2022-08-01T10:06:42;100049.94;;;30.15;28.41
49627;BME280;35527;54.616;39.786;2022-08-01T10:09:49;100050.34;;;30.27;28.19
49627;BME280;35527;54.616;39.786;2022-08-01T10:12:56;100052.22;;;30.03;28.59
49627;BME280;35527;54.616;39.786;2022-08-01T10:16:01;100046.41;;;30.23;28.44
49627;BME280;35527;54.616;39.786;2022-08-01T10:19:06;100045.63;;;30.14;29.01
49627;BME280;35527;54.616;39.786;2022-08-01T10:22:14;100049.34;;;29.36;30.68
49627;BME280;35527;54.616;39.786;2022-08-01T10:25:22;100059.25;;;29.50;30.63
49627;BME280;35527;54.616;39.786;2022-08-01T10:28:30;100052.16;;;29.74;30.29
49627;BME280;35527;54.616;39.786;2022-08-01T10:31:34;100056.38;;;30.59;28.56
49627;BME280;35527;54.616;39.786;2022-08-01T10:34:37;100032.47;;;31.16;27.46
49627;BME280;35527;54.616;39.786;2022-08-01T10:37:45;100035.00;;;31.03;28.03
49627;BME280;35527;54.616;39.786;2022-08-01T10:40:49;100032.94;;;31.20;27.97
49627;BME280;35527;54.616;39.786;2022-08-01T10:43:54;100044.84;;;30.73;28.69
49627;BME280;35527;54.616;39.786;2022-08-01T10:47:23;100062.06;;;31.15;27.85
49627;BME280;35527;54.616;39.786;2022-08-01T10:50:49;100045.91;;;30.19;28.91
49627;BME280;35527;54.616;39.786;2022-08-01T10:53:57;100049.88;;;28.36;30.82
49627;BME280;35527;54.616;39.786;2022-08-01T10:57:00;100032.22;;;27.45;31.77
49627;BME280;35527;54.616;39.786;2022-08-01T11:00:04;100051.81;;;27.36;32.84
49627;BME280;35527;54.616;39.786;2022-08-01T11:03:10;100037.97;;;27.24;33.57
49627;BME280;35527;54.616;39.786;2022-08-01T11:06:24;100042.97;;;27.19;33.59
49627;BME280;35527;54.616;39.786;2022-08-01T11:10:04;100050.19;;;27.68;32.32
49627;BME280;35527;54.616;39.786;2022-08-01T11:13:09;100041.53;;;27.49;32.21
49627;BME280;35527;54.616;39.786;2022-08-01T11:16:32;100047.38;;;27.53;31.93
49627;BME280;35527;54.616;39.786;2022-08-01T11:20:11;100052.41;;;27.97;31.12
49627;BME280;35527;54.616;39.786;2022-08-01T11:23:16;100052.00;;;28.41;31.42
49627;BME280;35527;54.616;39.786;2022-08-01T11:26:22;100049.56;;;28.47;31.08
49627;BME280;35527;54.616;39.786;2022-08-01T11:29:25;100039.19;;;28.52;30.73
49627;BME280;35527;54.616;39.786;2022-08-01T11:32:32;100023.50;;;28.74;30.65
49627;BME280;35527;54.616;39.786;2022-08-01T11:39:40;100034.22;;;29.05;29.57
49627;BME280;35527;54.616;39.786;2022-08-01T11:42:44;100031.94;;;27.81;31.09
49627;BME280;35527;54.616;39.786;2022-08-01T11:45:54;100024.13;;;27.12;32.45
49627;BME280;35527;54.616;39.786;2022-08-01T11:52:33;99999.09;;;26.72;32.61
49627;BME280;35527;54.616;39.786;2022-08-01T11:55:52;100021.16;;;27.15;32.46
49627;BME280;35527;54.616;39.786;2022-08-01T11:58:59;99997.16;;;27.33;34.21
49627;BME280;35527;54.616;39.786;2022-08-01T12:02:02;100020.44;;;27.48;32.67
49627;BME280;35527;54.616;39.786;2022-08-01T12:05:17;100009.81;;;27.56;31.82
49627;BME280;35527;54.616;39.786;2022-08-01T12:08:30;99985.69;;;27.41;32.45
49627;BME280;35527;54.616;39.786;2022-08-01T12:11:38;100006.81;;;27.51;32.13
49627;BME280;35527;54.616;39.786;2022-08-01T12:14:41;99977.03;;;27.23;31.37
49627;BME280;35527;54.616;39.786;2022-08-01T12:17:48;99977.94;;;26.97;31.83
49627;BME280;35527;54.616;39.786;2022-08-01T12:21:02;99982.00;;;26.75;31.92
49627;BME280;35527;54.616;39.786;2022-08-01T12:24:07;99985.56;;;26.58;31.64
49627;BME280;35527;54.616;39.786;2022-08-01T12:27:10;99985.81;;;26.46;32.15
49627;BME280;35527;54.616;39.786;2022-08-01T12:30:18;99995.56;;;26.64;32.37
49627;BME280;35527;54.616;39.786;2022-08-01T12:33:28;99994.22;;;27.02;31.62
49627;BME280;35527;54.616;39.786;2022-08-01T12:36:31;99973.38;;;27.40;31.86
49627;BME280;35527;54.616;39.786;2022-08-01T12:39:35;99971.91;;;27.87;31.33
49627;BME280;35527;54.616;39.786;2022-08-01T12:42:42;99973.59;;;27.88;31.73
49627;BME280;35527;54.616;39.786;2022-08-01T12:45:49;99980.53;;;27.72;31.20
49627;BME280;35527;54.616;39.786;2022-08-01T12:48:56;99975.34;;;27.30;31.97
49627;BME280;35527;54.616;39.786;2022-08-01T12:52:00;99994.19;;;26.94;32.54
49627;BME280;35527;54.616;39.786;2022-08-01T12:55:15;99985.31;;;27.20;32.49
49627;BME280;35527;54.616;39.786;2022-08-01T12:58:21;99982.06;;;27.50;31.71
49627;BME280;35527;54.616;39.786;2022-08-01T13:01:27;99982.03;;;27.58;31.03
49627;BME280;35527;54.616;39.786;2022-08-01T13:04:31;99975.56;;;27.69;30.87
49627;BME280;35527;54.616;39.786;2022-08-01T13:10:46;99959.44;;;27.54;30.83
49627;BME280;35527;54.616;39.786;2022-08-01T13:13:51;99940.66;;;27.31;30.82
49627;BME280;35527;54.616;39.786;2022-08-01T13:16:56;99956.91;;;27.20;31.87
49627;BME280;35527;54.616;39.786;2022-08-01T13:19:59;99960.47;;;26.94;32.63
49627;BME280;35527;54.616;39.786;2022-08-01T13:23:14;99945.50;;;26.77;32.84
49627;BME280;35527;54.616;39.786;2022-08-01T13:26:18;99957.38;;;26.57;33.13
49627;BME280;35527;54.616;39.786;2022-08-01T13:29:38;99945.25;;;26.54;32.96
49627;BME280;35527;54.616;39.786;2022-08-01T13:32:58;99910.78;;;25.76;33.81
49627;BME280;35527;54.616;39.786;2022-08-01T13:36:03;99943.13;;;26.32;33.61
49627;BME280;35527;54.616;39.786;2022-08-01T13:39:07;99944.09;;;26.57;32.48
49627;BME280;35527;54.616;39.786;2022-08-01T13:42:29;99948.25;;;26.59;32.51
49627;BME280;35527;54.616;39.786;2022-08-01T13:45:38;99950.41;;;26.56;33.09
49627;BME280;35527;54.616;39.786;2022-08-01T13:48:43;99951.25;;;26.56;32.89
49627;BME280;35527;54.616;39.786;2022-08-01T13:51:50;99950.13;;;26.75;32.36
49627;BME280;35527;54.616;39.786;2022-08-01T13:54:52;99957.78;;;26.78;32.21
49627;BME280;35527;54.616;39.786;2022-08-01T13:57:56;99956.91;;;26.61;32.49
49627;BME280;35527;54.616;39.786;2022-08-01T14:01:01;99947.75;;;26.56;33.05
49627;BME280;35527;54.616;39.786;2022-08-01T14:04:04;99903.72;;;26.45;32.88
49627;BME280;35527;54.616;39.786;2022-08-01T14:07:07;99930.03;;;26.64;32.69
49627;BME280;35527;54.616;39.786;2022-08-01T14:10:13;99949.81;;;26.70;32.79
49627;BME280;35527;54.616;39.786;2022-08-01T14:13:16;99908.72;;;26.14;32.75
49627;BME280;35527;54.616;39.786;2022-08-01T14:16:21;99945.78;;;26.32;33.57
49627;BME280;35527;54.616;39.786;2022-08-01T14:19:24;99935.34;;;26.38;33.78
49627;BME280;35527;54.616;39.786;2022-08-01T14:22:32;99933.00;;;26.27;34.27
49627;BME280;35527;54.616;39.786;2022-08-01T14:25:40;99925.41;;;26.06;33.64
49627;BME280;35527;54.616;39.786;2022-08-01T14:28:44;99933.16;;;25.99;34.14
49627;BME280;35527;54.616;39.786;2022-08-01T14:31:48;99941.06;;;25.91;34.08
49627;BME280;35527;54.616;39.786;2022-08-01T14:34:52;99944.72;;;25.90;34.31
49627;BME280;35527;54.616;39.786;2022-08-01T14:37:56;99950.84;;;25.91;34.76
49627;BME280;35527;54.616;39.786;2022-08-01T14:41:00;99933.09;;;25.47;35.73
49627;BME280;35527;54.616;39.786;2022-08-01T14:44:03;99944.25;;;25.33;35.94
49627;BME280;35527;54.616;39.786;2022-08-01T14:47:12;99922.06;;;24.88;36.44
49627;BME280;35527;54.616;39.786;2022-08-01T14:50:16;99939.88;;;24.68;36.77
49627;BME280;35527;54.616;39.786;2022-08-01T14:53:18;99949.22;;;24.72;36.83
49627;BME280;35527;54.616;39.786;2022-08-01T14:56:23;99948.03;;;24.57;37.35
49627;BME280;35527;54.616;39.786;2022-08-01T14:59:28;99917.38;;;24.27;36.64
49627;BME280;35527;54.616;39.786;2022-08-01T15:02:36;99940.78;;;24.22;37.22
49627;BME280;35527;54.616;39.786;2022-08-01T15:05:40;99934.91;;;24.28;37.56
49627;BME280;35527;54.616;39.786;2022-08-01T15:08:43;99931.44;;;24.18;36.72
49627;BME280;35527;54.616;39.786;2022-08-01T15:11:48;99928.13;;;24.06;36.90
49627;BME280;35527;54.616;39.786;2022-08-01T15:14:50;99908.56;;;23.89;37.60
49627;BME280;35527;54.616;39.786;2022-08-01T15:17:53;99926.25;;;23.89;37.72
49627;BME280;35527;54.616;39.786;2022-08-01T15:20:56;99914.84;;;23.88;37.66
49627;BME280;35527;54.616;39.786;2022-08-01T15:24:06;99935.50;;;24.12;37.93
49627;BME280;35527;54.616;39.786;2022-08-01T15:27:10;99919.19;;;24.17;38.02
49627;BME280;35527;54.616;39.786;2022-08-01T15:30:16;99927.63;;;23.93;38.46
49627;BME280;35527;54.616;39.786;2022-08-01T15:33:19;99920.81;;;23.90;38.89
49627;BME280;35527;54.616;39.786;2022-08-01T15:36:26;99916.50;;;23.89;38.96
49627;BME280;35527;54.616;39.786;2022-08-01T15:39:30;99914.91;;;24.06;38.73
49627;BME280;35527;54.616;39.786;2022-08-01T15:42:36;99920.78;;;24.00;38.89
49627;BME280;35527;54.616;39.786;2022-08-01T15:45:38;99916.41;;;23.81;39.08
49627;BME280;35527;54.616;39.786;2022-08-01T15:48:51;99921.09;;;23.68;39.22
49627;BME280;35527;54.616;39.786;2022-08-01T15:51:55;99933.06;;;23.62;39.09
49627;BME280;35527;54.616;39.786;2022-08-01T15:54:58;99928.78;;;23.61;39.28
49627;BME280;35527;54.616;39.786;2022-08-01T15:58:00;99926.84;;;23.53;39.04
49627;BME280;35527;54.616;39.786;2022-08-01T16:01:04;99940.47;;;23.58;38.97
49627;BME280;35527;54.616;39.786;2022-08-01T16:04:11;99940.03;;;23.53;39.81
49627;BME280;35527;54.616;39.786;2022-08-01T16:07:16;99928.22;;;23.48;39.60
49627;BME280;35527;54.616;39.786;2022-08-01T16:10:18;99930.31;;;23.34;40.19
49627;BME280;35527;54.616;39.786;2022-08-01T16:13:24;99923.91;;;23.17;40.65
49627;BME280;35527;54.616;39.786;2022-08-01T16:16:30;99898.84;;;22.92;40.67